sensor_id;sensor_type;location;lat;lon;timestamp;P1;durP1;ratioP1;P2;durP2;ratioP2
3541;SDS011;1785;47.388;8.538;2022-09-09T00:02:02;7.30;;;4.57;;
3541;SDS011;1785;47.388;8.538;2022-09-09T00:04:40;5.93;;;4.13;;
3541;SDS011;1785;47.388;8.538;2022-09-09T00:07:10;4.50;;;3.63;;
3541;SDS011;1785;47.388;8.538;2022-09-09T00:09:46;7.30;;;4.60;;
3541;SDS011;1785;47.388;8.538;2022-09-09T00:12:19;8.73;;;4.43;;
3541;SDS011;1785;47.388;8.538;2022-09-09T00:14:54;7.33;;;4.93;;
3541;SDS011;1785;47.388;8.538;2022-09-09T00:17:31;6.60;;;4.77;;
3541;SDS011;1785;47.388;8.538;2022-09-09T00:20:09;6.23;;;5.07;;
3541;SDS011;1785;47.388;8.538;2022-09-09T00:22:38;6.03;;;4.80;;
3541;SDS011;1785;47.388;8.538;2022-09-09T00:25:12;7.17;;;4.67;;
3541;SDS011;1785;47.388;8.538;2022-09-09T00:27:44;4.77;;;4.30;;
3541;SDS011;1785;47.388;8.538;2022-09-09T00:30:16;6.63;;;5.20;;
3541;SDS011;1785;47.388;8.538;2022-09-09T00:32:46;8.03;;;4.90;;
3541;SDS011;1785;47.388;8.538;2022-09-09T00:35:18;7.90;;;5.20;;
3541;SDS011;1785;47.388;8.538;2022-09-09T00:37:48;7.70;;;5.00;;
3541;SDS011;1785;47.388;8.538;2022-09-09T00:40:21;7.70;;;4.77;;
3541;SDS011;1785;47.388;8.538;2022-09-09T00:42:52;10.70;;;5.20;;
3541;SDS011;1785;47.388;8.538;2022-09-09T00:48:33;6.57;;;4.90;;
3541;SDS011;1785;47.388;8.538;2022-09-09T00:51:08;5.90;;;4.60;;
3541;SDS011;1785;47.388;8.538;2022-09-09T00:53:51;8.17;;;4.70;;
3541;SDS011;1785;47.388;8.538;2022-09-09T00:56:30;7.00;;;4.90;;
3541;SDS011;1785;47.388;8.538;2022-09-09T00:59:10;7.37;;;4.67;;
3541;SDS011;1785;47.388;8.538;2022-09-09T01:01:49;4.13;;;3.73;;
3541;SDS011;1785;47.388;8.538;2022-09-09T01:04:18;4.53;;;4.10;;
3541;SDS011;1785;47.388;8.538;2022-09-09T01:06:51;4.17;;;3.87;;
3541;SDS011;1785;47.388;8.538;2022-09-09T01:09:25;5.03;;;3.87;;
3541;SDS011;1785;47.388;8.538;2022-09-09T01:11:57;4.30;;;3.57;;
3541;SDS011;1785;47.388;8.538;2022-09-09T01:14:30;5.83;;;4.07;;
3541;SDS011;1785;47.388;8.538;2022-09-09T01:17:07;4.73;;;4.30;;
3541;SDS011;1785;47.388;8.538;2022-09-09T01:19:45;7.73;;;4.23;;
3541;SDS011;1785;47.388;8.538;2022-09-09T01:22:22;5.93;;;3.80;;
3541;SDS011;1785;47.388;8.538;2022-09-09T01:25:07;7.37;;;4.53;;
3541;SDS011;1785;47.388;8.538;2022-09-09T01:27:53;4.60;;;3.40;;
3541;SDS011;1785;47.388;8.538;2022-09-09T01:30:22;5.13;;;4.07;;
3541;SDS011;1785;47.388;8.538;2022-09-09T01:32:49;3.43;;;2.90;;
3541;SDS011;1785;47.388;8.538;2022-09-09T01:35:22;5.97;;;3.47;;
3541;SDS011;1785;47.388;8.538;2022-09-09T01:38:00;5.40;;;3.90;;
3541;SDS011;1785;47.388;8.538;2022-09-09T01:40:26;3.43;;;3.13;;
3541;SDS011;1785;47.388;8.538;2022-09-09T01:42:53;3.60;;;3.30;;
3541;SDS011;1785;47.388;8.538;2022-09-09T01:45:20;3.93;;;3.00;;
3541;SDS011;1785;47.388;8.538;2022-09-09T01:47:47;3.23;;;2.93;;
3541;SDS011;1785;47.388;8.538;2022-09-09T01:50:15;3.00;;;2.80;;
3541;SDS011;1785;47.388;8.538;2022-09-09T01:52:42;3.60;;;3.30;;
3541;SDS011;1785;47.388;8.538;2022-09-09T01:55:12;2.90;;;2.70;;
3541;SDS011;1785;47.388;8.538;2022-09-09T01:57:39;5.43;;;3.13;;
3541;SDS011;1785;47.388;8.538;2022-09-09T02:00:13;5.83;;;3.23;;
3541;SDS011;1785;47.388;8.538;2022-09-09T02:02:44;5.50;;;3.80;;
3541;SDS011;1785;47.388;8.538;2022-09-09T02:05:21;4.73;;;3.40;;
3541;SDS011;1785;47.388;8.538;2022-09-09T02:07:56;5.10;;;3.70;;
3541;SDS011;1785;47.388;8.538;2022-09-09T02:10:32;6.83;;;3.97;;
3541;SDS011;1785;47.388;8.538;2022-09-09T02:13:04;3.10;;;2.87;;
3541;SDS011;1785;47.388;8.538;2022-09-09T02:15:35;4.13;;;2.83;;
3541;SDS011;1785;47.388;8.538;2022-09-09T02:18:08;3.57;;;3.03;;
3541;SDS011;1785;47.388;8.538;2022-09-09T02:20:37;4.77;;;3.07;;
3541;SDS011;1785;47.388;8.538;2022-09-09T02:23:04;6.00;;;3.17;;
3541;SDS011;1785;47.388;8.538;2022-09-09T02:25:32;2.70;;;2.20;;
3541;SDS011;1785;47.388;8.538;2022-09-09T02:28:01;4.13;;;2.40;;
3541;SDS011;1785;47.388;8.538;2022-09-09T02:30:32;2.63;;;2.43;;
3541;SDS011;1785;47.388;8.538;2022-09-09T02:33:00;3.83;;;2.30;;
3541;SDS011;1785;47.388;8.538;2022-09-09T02:35:31;5.80;;;3.10;;
3541;SDS011;1785;47.388;8.538;2022-09-09T02:38:04;5.27;;;2.67;;
3541;SDS011;1785;47.388;8.538;2022-09-09T02:40:33;4.20;;;2.77;;
3541;SDS011;1785;47.388;8.538;2022-09-09T02:42:59;6.40;;;2.70;;
3541;SDS011;1785;47.388;8.538;2022-09-09T02:45:27;4.10;;;2.30;;
3541;SDS011;1785;47.388;8.538;2022-09-09T02:48:02;4.83;;;3.00;;
3541;SDS011;1785;47.388;8.538;2022-09-09T02:50:40;7.37;;;3.40;;
3541;SDS011;1785;47.388;8.538;2022-09-09T02:53:12;3.00;;;2.80;;
3541;SDS011;1785;47.388;8.538;2022-09-09T02:55:44;3.50;;;2.43;;
3541;SDS011;1785;47.388;8.538;2022-09-09T02:58:14;4.60;;;2.70;;
3541;SDS011;1785;47.388;8.538;2022-09-09T03:00:43;3.27;;;2.73;;
3541;SDS011;1785;47.388;8.538;2022-09-09T03:03:11;3.23;;;2.93;;
3541;SDS011;1785;47.388;8.538;2022-09-09T03:05:38;3.63;;;2.30;;
3541;SDS011;1785;47.388;8.538;2022-09-09T03:08:05;3.73;;;2.87;;
3541;SDS011;1785;47.388;8.538;2022-09-09T03:10:32;3.50;;;2.70;;
3541;SDS011;1785;47.388;8.538;2022-09-09T03:12:58;5.87;;;2.40;;
3541;SDS011;1785;47.388;8.538;2022-09-09T03:15:25;6.03;;;2.80;;
3541;SDS011;1785;47.388;8.538;2022-09-09T03:17:54;4.70;;;2.90;;
3541;SDS011;1785;47.388;8.538;2022-09-09T03:20:22;4.30;;;3.03;;
3541;SDS011;1785;47.388;8.538;2022-09-09T03:22:48;4.03;;;2.60;;
3541;SDS011;1785;47.388;8.538;2022-09-09T03:25:15;4.97;;;3.00;;
3541;SDS011;1785;47.388;8.538;2022-09-09T03:27:41;3.50;;;2.77;;
3541;SDS011;1785;47.388;8.538;2022-09-09T03:30:08;2.63;;;2.43;;
3541;SDS011;1785;47.388;8.538;2022-09-09T03:32:35;7.80;;;3.40;;
3541;SDS011;1785;47.388;8.538;2022-09-09T03:35:02;5.50;;;2.80;;
3541;SDS011;1785;47.388;8.538;2022-09-09T03:37:29;2.73;;;2.10;;
3541;SDS011;1785;47.388;8.538;2022-09-09T03:39:56;4.43;;;1.90;;
3541;SDS011;1785;47.388;8.538;2022-09-09T03:42:23;5.90;;;2.50;;
3541;SDS011;1785;47.388;8.538;2022-09-09T03:44:49;4.03;;;2.20;;
3541;SDS011;1785;47.388;8.538;2022-09-09T03:47:16;1.93;;;1.83;;
3541;SDS011;1785;47.388;8.538;2022-09-09T03:49:43;3.30;;;1.90;;
3541;SDS011;1785;47.388;8.538;2022-09-09T03:52:10;1.93;;;1.80;;
3541;SDS011;1785;47.388;8.538;2022-09-09T03:54:37;3.03;;;1.47;;
3541;SDS011;1785;47.388;8.538;2022-09-09T03:57:04;2.03;;;1.17;;
3541;SDS011;1785;47.388;8.538;2022-09-09T03:59:30;1.90;;;1.80;;
3541;SDS011;1785;47.388;8.538;2022-09-09T04:01:57;2.60;;;1.57;;
3541;SDS011;1785;47.388;8.538;2022-09-09T04:04:24;2.70;;;2.00;;
3541;SDS011;1785;47.388;8.538;2022-09-09T04:06:51;2.47;;;1.57;;
3541;SDS011;1785;47.388;8.538;2022-09-09T04:09:17;5.13;;;1.30;;
3541;SDS011;1785;47.388;8.538;2022-09-09T04:11:44;1.67;;;1.40;;
3541;SDS011;1785;47.388;8.538;2022-09-09T04:14:11;2.10;;;1.37;;
3541;SDS011;1785;47.388;8.538;2022-09-09T04:16:37;1.50;;;1.20;;
3541;SDS011;1785;47.388;8.538;2022-09-09T04:19:04;1.50;;;0.90;;
3541;SDS011;1785;47.388;8.538;2022-09-09T04:21:32;3.13;;;1.40;;
3541;SDS011;1785;47.388;8.538;2022-09-09T04:23:59;3.60;;;1.30;;
3541;SDS011;1785;47.388;8.538;2022-09-09T04:26:25;1.47;;;1.37;;
3541;SDS011;1785;47.388;8.538;2022-09-09T04:28:52;2.07;;;1.80;;
3541;SDS011;1785;47.388;8.538;2022-09-09T04:31:19;1.23;;;1.10;;
3541;SDS011;1785;47.388;8.538;2022-09-09T04:33:48;1.73;;;1.63;;
3541;SDS011;1785;47.388;8.538;2022-09-09T04:36:15;1.30;;;1.00;;
3541;SDS011;1785;47.388;8.538;2022-09-09T04:38:41;1.40;;;1.30;;
3541;SDS011;1785;47.388;8.538;2022-09-09T04:41:09;1.53;;;1.43;;
3541;SDS011;1785;47.388;8.538;2022-09-09T04:43:36;1.50;;;1.40;;
3541;SDS011;1785;47.388;8.538;2022-09-09T04:46:04;2.07;;;1.50;;
3541;SDS011;1785;47.388;8.538;2022-09-09T04:48:31;1.70;;;1.60;;
3541;SDS011;1785;47.388;8.538;2022-09-09T04:50:59;1.87;;;1.27;;
3541;SDS011;1785;47.388;8.538;2022-09-09T04:53:26;1.40;;;1.20;;
3541;SDS011;1785;47.388;8.538;2022-09-09T04:56:00;3.43;;;1.60;;
3541;SDS011;1785;47.388;8.538;2022-09-09T04:58:27;1.43;;;1.20;;
3541;SDS011;1785;47.388;8.538;2022-09-09T05:00:54;2.57;;;1.50;;
3541;SDS011;1785;47.388;8.538;2022-09-09T05:03:21;3.83;;;1.70;;
3541;SDS011;1785;47.388;8.538;2022-09-09T05:05:48;1.70;;;1.30;;
3541;SDS011;1785;47.388;8.538;2022-09-09T05:08:15;2.63;;;1.63;;
3541;SDS011;1785;47.388;8.538;2022-09-09T05:10:41;1.73;;;1.47;;
3541;SDS011;1785;47.388;8.538;2022-09-09T05:13:07;2.60;;;1.60;;
3541;SDS011;1785;47.388;8.538;2022-09-09T05:15:33;2.50;;;1.50;;
3541;SDS011;1785;47.388;8.538;2022-09-09T05:18:01;1.43;;;1.30;;
3541;SDS011;1785;47.388;8.538;2022-09-09T05:20:29;2.70;;;1.23;;
3541;SDS011;1785;47.388;8.538;2022-09-09T05:22:55;2.50;;;1.20;;
3541;SDS011;1785;47.388;8.538;2022-09-09T05:25:22;2.23;;;1.70;;
3541;SDS011;1785;47.388;8.538;2022-09-09T05:27:51;4.07;;;2.30;;
3541;SDS011;1785;47.388;8.538;2022-09-09T05:30:18;2.87;;;1.40;;
3541;SDS011;1785;47.388;8.538;2022-09-09T05:32:44;2.40;;;1.70;;
3541;SDS011;1785;47.388;8.538;2022-09-09T05:35:13;2.30;;;1.53;;
3541;SDS011;1785;47.388;8.538;2022-09-09T05:37:40;5.83;;;1.77;;
3541;SDS011;1785;47.388;8.538;2022-09-09T05:40:11;3.40;;;1.50;;
3541;SDS011;1785;47.388;8.538;2022-09-09T05:42:38;1.73;;;1.30;;
3541;SDS011;1785;47.388;8.538;2022-09-09T05:45:05;2.23;;;1.23;;
3541;SDS011;1785;47.388;8.538;2022-09-09T05:47:32;1.77;;;1.67;;
3541;SDS011;1785;47.388;8.538;2022-09-09T05:49:59;2.20;;;1.27;;
3541;SDS011;1785;47.388;8.538;2022-09-09T05:52:25;7.57;;;1.80;;
3541;SDS011;1785;47.388;8.538;2022-09-09T05:54:53;1.57;;;1.40;;
3541;SDS011;1785;47.388;8.538;2022-09-09T05:57:20;5.00;;;1.60;;
3541;SDS011;1785;47.388;8.538;2022-09-09T05:59:47;3.30;;;1.53;;
3541;SDS011;1785;47.388;8.538;2022-09-09T06:02:15;2.40;;;1.70;;
3541;SDS011;1785;47.388;8.538;2022-09-09T06:04:42;6.00;;;2.80;;
3541;SDS011;1785;47.388;8.538;2022-09-09T06:07:08;3.40;;;1.50;;
3541;SDS011;1785;47.388;8.538;2022-09-09T06:09:34;1.57;;;1.47;;
3541;SDS011;1785;47.388;8.538;2022-09-09T06:12:02;2.33;;;1.50;;
3541;SDS011;1785;47.388;8.538;2022-09-09T06:14:28;3.23;;;1.63;;
3541;SDS011;1785;47.388;8.538;2022-09-09T06:16:55;3.83;;;1.70;;
3541;SDS011;1785;47.388;8.538;2022-09-09T06:19:21;3.37;;;1.93;;
3541;SDS011;1785;47.388;8.538;2022-09-09T06:21:49;2.47;;;1.33;;
3541;SDS011;1785;47.388;8.538;2022-09-09T06:24:16;2.40;;;1.50;;
3541;SDS011;1785;47.388;8.538;2022-09-09T06:26:44;2.23;;;1.80;;
3541;SDS011;1785;47.388;8.538;2022-09-09T06:29:12;3.50;;;1.77;;
3541;SDS011;1785;47.388;8.538;2022-09-09T06:31:38;3.13;;;1.50;;
3541;SDS011;1785;47.388;8.538;2022-09-09T06:34:06;1.40;;;1.30;;
3541;SDS011;1785;47.388;8.538;2022-09-09T06:36:33;2.20;;;1.10;;
3541;SDS011;1785;47.388;8.538;2022-09-09T06:39:02;3.70;;;1.70;;
3541;SDS011;1785;47.388;8.538;2022-09-09T06:41:29;2.07;;;1.53;;
3541;SDS011;1785;47.388;8.538;2022-09-09T06:43:58;1.60;;;1.50;;
3541;SDS011;1785;47.388;8.538;2022-09-09T06:46:25;1.77;;;1.67;;
3541;SDS011;1785;47.388;8.538;2022-09-09T06:48:53;4.40;;;1.60;;
3541;SDS011;1785;47.388;8.538;2022-09-09T06:51:21;1.83;;;1.33;;
3541;SDS011;1785;47.388;8.538;2022-09-09T06:53:49;2.90;;;1.10;;
3541;SDS011;1785;47.388;8.538;2022-09-09T06:56:18;1.40;;;1.20;;
3541;SDS011;1785;47.388;8.538;2022-09-09T06:58:47;1.43;;;1.07;;
3541;SDS011;1785;47.388;8.538;2022-09-09T07:01:14;2.40;;;1.20;;
3541;SDS011;1785;47.388;8.538;2022-09-09T07:03:44;3.47;;;1.13;;
3541;SDS011;1785;47.388;8.538;2022-09-09T07:06:13;2.03;;;1.77;;
3541;SDS011;1785;47.388;8.538;2022-09-09T07:08:42;2.30;;;1.40;;
3541;SDS011;1785;47.388;8.538;2022-09-09T07:11:08;1.77;;;1.00;;
3541;SDS011;1785;47.388;8.538;2022-09-09T07:13:36;2.83;;;1.73;;
3541;SDS011;1785;47.388;8.538;2022-09-09T07:16:03;1.63;;;1.10;;
3541;SDS011;1785;47.388;8.538;2022-09-09T07:18:30;1.27;;;1.10;;
3541;SDS011;1785;47.388;8.538;2022-09-09T07:20:59;3.07;;;1.03;;
3541;SDS011;1785;47.388;8.538;2022-09-09T07:23:25;1.40;;;1.30;;
3541;SDS011;1785;47.388;8.538;2022-09-09T07:25:51;1.67;;;1.50;;
3541;SDS011;1785;47.388;8.538;2022-09-09T07:28:18;1.50;;;1.40;;
3541;SDS011;1785;47.388;8.538;2022-09-09T07:30:52;1.40;;;1.30;;
3541;SDS011;1785;47.388;8.538;2022-09-09T07:33:19;1.43;;;1.30;;
3541;SDS011;1785;47.388;8.538;2022-09-09T07:35:45;1.40;;;1.20;;
3541;SDS011;1785;47.388;8.538;2022-09-09T07:38:13;6.40;;;1.50;;
3541;SDS011;1785;47.388;8.538;2022-09-09T07:40:40;4.27;;;1.40;;
3541;SDS011;1785;47.388;8.538;2022-09-09T07:43:06;2.20;;;1.73;;
3541;SDS011;1785;47.388;8.538;2022-09-09T07:45:33;3.50;;;1.63;;
3541;SDS011;1785;47.388;8.538;2022-09-09T07:48:00;1.53;;;1.30;;
3541;SDS011;1785;47.388;8.538;2022-09-09T07:50:27;1.77;;;1.40;;
3541;SDS011;1785;47.388;8.538;2022-09-09T07:52:53;1.63;;;1.30;;
3541;SDS011;1785;47.388;8.538;2022-09-09T07:55:20;1.80;;;1.27;;
3541;SDS011;1785;47.388;8.538;2022-09-09T07:57:50;2.40;;;1.33;;
3541;SDS011;1785;47.388;8.538;2022-09-09T08:00:17;1.63;;;1.20;;
3541;SDS011;1785;47.388;8.538;2022-09-09T08:02:45;2.90;;;1.80;;
3541;SDS011;1785;47.388;8.538;2022-09-09T08:05:11;3.40;;;2.00;;
3541;SDS011;1785;47.388;8.538;2022-09-09T08:07:38;1.90;;;1.70;;
3541;SDS011;1785;47.388;8.538;2022-09-09T08:10:04;2.20;;;1.67;;
3541;SDS011;1785;47.388;8.538;2022-09-09T08:12:32;2.07;;;1.87;;
3541;SDS011;1785;47.388;8.538;2022-09-09T08:14:59;3.17;;;1.77;;
3541;SDS011;1785;47.388;8.538;2022-09-09T08:17:25;2.00;;;1.80;;
3541;SDS011;1785;47.388;8.538;2022-09-09T08:19:51;4.50;;;1.90;;
3541;SDS011;1785;47.388;8.538;2022-09-09T08:22:19;4.57;;;1.80;;
3541;SDS011;1785;47.388;8.538;2022-09-09T08:24:45;2.87;;;1.70;;
3541;SDS011;1785;47.388;8.538;2022-09-09T08:27:12;3.90;;;1.70;;
3541;SDS011;1785;47.388;8.538;2022-09-09T08:29:39;1.97;;;1.53;;
3541;SDS011;1785;47.388;8.538;2022-09-09T08:32:06;1.60;;;1.37;;
3541;SDS011;1785;47.388;8.538;2022-09-09T08:34:33;2.43;;;1.87;;
3541;SDS011;1785;47.388;8.538;2022-09-09T08:36:59;4.57;;;2.03;;
3541;SDS011;1785;47.388;8.538;2022-09-09T08:39:25;1.80;;;1.50;;
3541;SDS011;1785;47.388;8.538;2022-09-09T08:41:56;5.10;;;1.63;;
3541;SDS011;1785;47.388;8.538;2022-09-09T08:47:27;2.30;;;1.40;;
3541;SDS011;1785;47.388;8.538;2022-09-09T08:50:11;1.67;;;1.57;;
3541;SDS011;1785;47.388;8.538;2022-09-09T08:52:47;3.83;;;1.80;;
3541;SDS011;1785;47.388;8.538;2022-09-09T08:55:23;1.97;;;1.73;;
3541;SDS011;1785;47.388;8.538;2022-09-09T08:57:53;1.80;;;1.67;;
3541;SDS011;1785;47.388;8.538;2022-09-09T09:00:22;2.50;;;1.67;;
3541;SDS011;1785;47.388;8.538;2022-09-09T09:03:00;1.60;;;1.20;;
3541;SDS011;1785;47.388;8.538;2022-09-09T09:05:36;3.70;;;1.60;;
3541;SDS011;1785;47.388;8.538;2022-09-09T09:08:12;1.90;;;1.33;;
3541;SDS011;1785;47.388;8.538;2022-09-09T09:10:45;2.90;;;1.60;;
3541;SDS011;1785;47.388;8.538;2022-09-09T09:13:14;2.90;;;1.50;;
3541;SDS011;1785;47.388;8.538;2022-09-09T09:15:43;6.43;;;1.50;;
3541;SDS011;1785;47.388;8.538;2022-09-09T09:18:12;4.93;;;1.50;;
3541;SDS011;1785;47.388;8.538;2022-09-09T09:20:42;6.07;;;1.67;;
3541;SDS011;1785;47.388;8.538;2022-09-09T09:23:19;3.27;;;1.57;;
3541;SDS011;1785;47.388;8.538;2022-09-09T09:25:48;3.17;;;2.20;;
3541;SDS011;1785;47.388;8.538;2022-09-09T09:28:17;4.27;;;2.20;;
3541;SDS011;1785;47.388;8.538;2022-09-09T09:30:48;3.17;;;1.97;;
3541;SDS011;1785;47.388;8.538;2022-09-09T09:33:20;1.57;;;1.40;;
3541;SDS011;1785;47.388;8.538;2022-09-09T09:35:49;4.67;;;2.23;;
3541;SDS011;1785;47.388;8.538;2022-09-09T09:38:17;3.63;;;2.17;;
3541;SDS011;1785;47.388;8.538;2022-09-09T09:40:48;4.67;;;1.90;;
3541;SDS011;1785;47.388;8.538;2022-09-09T09:43:18;4.30;;;1.60;;
3541;SDS011;1785;47.388;8.538;2022-09-09T09:45:48;2.00;;;1.43;;
3541;SDS011;1785;47.388;8.538;2022-09-09T09:48:14;2.30;;;1.60;;
3541;SDS011;1785;47.388;8.538;2022-09-09T09:50:46;7.03;;;2.17;;
3541;SDS011;1785;47.388;8.538;2022-09-09T09:53:19;4.20;;;1.53;;
3541;SDS011;1785;47.388;8.538;2022-09-09T09:55:50;2.83;;;1.90;;
3541;SDS011;1785;47.388;8.538;2022-09-09T09:58:22;2.70;;;1.70;;
3541;SDS011;1785;47.388;8.538;2022-09-09T10:00:52;3.47;;;2.20;;
3541;SDS011;1785;47.388;8.538;2022-09-09T10:03:21;1.47;;;1.37;;
3541;SDS011;1785;47.388;8.538;2022-09-09T10:05:52;1.73;;;1.63;;
3541;SDS011;1785;47.388;8.538;2022-09-09T10:08:18;2.50;;;1.20;;
3541;SDS011;1785;47.388;8.538;2022-09-09T10:10:49;1.60;;;1.30;;
3541;SDS011;1785;47.388;8.538;2022-09-09T10:13:29;1.73;;;1.30;;
3541;SDS011;1785;47.388;8.538;2022-09-09T10:16:06;4.70;;;1.83;;
3541;SDS011;1785;47.388;8.538;2022-09-09T10:18:45;3.33;;;1.47;;
3541;SDS011;1785;47.388;8.538;2022-09-09T10:21:26;2.60;;;1.20;;
3541;SDS011;1785;47.388;8.538;2022-09-09T10:24:08;4.33;;;1.67;;
3541;SDS011;1785;47.388;8.538;2022-09-09T10:26:51;2.57;;;1.70;;
3541;SDS011;1785;47.388;8.538;2022-09-09T10:29:35;3.80;;;2.00;;
3541;SDS011;1785;47.388;8.538;2022-09-09T10:32:23;2.40;;;1.50;;
3541;SDS011;1785;47.388;8.538;2022-09-09T10:35:04;3.43;;;1.50;;
3541;SDS011;1785;47.388;8.538;2022-09-09T10:37:41;5.37;;;1.50;;
3541;SDS011;1785;47.388;8.538;2022-09-09T10:40:20;2.10;;;1.37;;
3541;SDS011;1785;47.388;8.538;2022-09-09T10:42:52;1.00;;;0.90;;
3541;SDS011;1785;47.388;8.538;2022-09-09T10:45:26;4.20;;;1.40;;
3541;SDS011;1785;47.388;8.538;2022-09-09T10:48:16;2.77;;;1.30;;
3541;SDS011;1785;47.388;8.538;2022-09-09T10:50:57;1.90;;;1.50;;
3541;SDS011;1785;47.388;8.538;2022-09-09T10:53:36;4.30;;;1.23;;
3541;SDS011;1785;47.388;8.538;2022-09-09T10:56:12;4.57;;;1.50;;
3541;SDS011;1785;47.388;8.538;2022-09-09T10:58:43;1.63;;;1.53;;
3541;SDS011;1785;47.388;8.538;2022-09-09T11:01:15;2.30;;;1.70;;
3541;SDS011;1785;47.388;8.538;2022-09-09T11:03:49;2.40;;;1.57;;
3541;SDS011;1785;47.388;8.538;2022-09-09T11:06:21;2.40;;;1.30;;
3541;SDS011;1785;47.388;8.538;2022-09-09T11:08:51;2.00;;;1.30;;
3541;SDS011;1785;47.388;8.538;2022-09-09T11:11:19;1.70;;;1.60;;
3541;SDS011;1785;47.388;8.538;2022-09-09T11:13:53;1.93;;;1.60;;
3541;SDS011;1785;47.388;8.538;2022-09-09T11:16:25;2.80;;;1.63;;
3541;SDS011;1785;47.388;8.538;2022-09-09T11:18:57;1.57;;;1.40;;
3541;SDS011;1785;47.388;8.538;2022-09-09T11:21:29;3.67;;;1.80;;
3541;SDS011;1785;47.388;8.538;2022-09-09T11:24:01;2.20;;;1.57;;
3541;SDS011;1785;47.388;8.538;2022-09-09T11:26:36;3.20;;;2.00;;
3541;SDS011;1785;47.388;8.538;2022-09-09T11:29:13;2.60;;;1.60;;
3541;SDS011;1785;47.388;8.538;2022-09-09T11:32:06;5.13;;;1.87;;
3541;SDS011;1785;47.388;8.538;2022-09-09T11:34:46;5.23;;;2.07;;
3541;SDS011;1785;47.388;8.538;2022-09-09T11:40:17;1.60;;;1.50;;
3541;SDS011;1785;47.388;8.538;2022-09-09T11:42:46;7.33;;;2.20;;
3541;SDS011;1785;47.388;8.538;2022-09-09T11:45:21;2.20;;;1.70;;
3541;SDS011;1785;47.388;8.538;2022-09-09T11:47:51;3.53;;;1.60;;
3541;SDS011;1785;47.388;8.538;2022-09-09T11:53:23;2.30;;;1.40;;
3541;SDS011;1785;47.388;8.538;2022-09-09T11:56:02;3.83;;;1.80;;
3541;SDS011;1785;47.388;8.538;2022-09-09T11:58:36;2.33;;;2.07;;
3541;SDS011;1785;47.388;8.538;2022-09-09T12:01:16;1.50;;;1.40;;
3541;SDS011;1785;47.388;8.538;2022-09-09T12:03:58;4.70;;;1.70;;
3541;SDS011;1785;47.388;8.538;2022-09-09T12:06:32;1.30;;;1.20;;
3541;SDS011;1785;47.388;8.538;2022-09-09T12:09:09;2.13;;;1.40;;
3541;SDS011;1785;47.388;8.538;2022-09-09T12:11:48;3.43;;;1.40;;
3541;SDS011;1785;47.388;8.538;2022-09-09T12:14:21;2.23;;;1.97;;
3541;SDS011;1785;47.388;8.538;2022-09-09T12:17:08;4.50;;;1.50;;
3541;SDS011;1785;47.388;8.538;2022-09-09T12:19:35;2.17;;;1.30;;
3541;SDS011;1785;47.388;8.538;2022-09-09T12:22:03;3.90;;;1.33;;
3541;SDS011;1785;47.388;8.538;2022-09-09T12:24:37;2.70;;;1.60;;
3541;SDS011;1785;47.388;8.538;2022-09-09T12:27:11;1.57;;;1.40;;
3541;SDS011;1785;47.388;8.538;2022-09-09T12:29:45;2.30;;;1.63;;
3541;SDS011;1785;47.388;8.538;2022-09-09T12:32:19;4.93;;;2.23;;
3541;SDS011;1785;47.388;8.538;2022-09-09T12:34:51;5.27;;;2.10;;
3541;SDS011;1785;47.388;8.538;2022-09-09T12:37:23;3.17;;;1.53;;
3541;SDS011;1785;47.388;8.538;2022-09-09T12:39:54;3.53;;;1.87;;
3541;SDS011;1785;47.388;8.538;2022-09-09T12:42:22;1.40;;;1.30;;
3541;SDS011;1785;47.388;8.538;2022-09-09T12:44:53;1.40;;;1.10;;
3541;SDS011;1785;47.388;8.538;2022-09-09T12:47:21;4.30;;;1.37;;
3541;SDS011;1785;47.388;8.538;2022-09-09T12:49:50;2.73;;;1.37;;
3541;SDS011;1785;47.388;8.538;2022-09-09T12:52:18;4.33;;;1.40;;
3541;SDS011;1785;47.388;8.538;2022-09-09T12:54:49;1.40;;;1.30;;
3541;SDS011;1785;47.388;8.538;2022-09-09T12:57:17;1.90;;;1.40;;
3541;SDS011;1785;47.388;8.538;2022-09-09T12:59:43;3.70;;;1.30;;
3541;SDS011;1785;47.388;8.538;2022-09-09T13:02:11;1.87;;;0.90;;
3541;SDS011;1785;47.388;8.538;2022-09-09T13:04:44;1.13;;;0.90;;
3541;SDS011;1785;47.388;8.538;2022-09-09T13:07:12;4.87;;;1.30;;
3541;SDS011;1785;47.388;8.538;2022-09-09T13:09:39;1.40;;;1.10;;
3541;SDS011;1785;47.388;8.538;2022-09-09T13:12:06;1.23;;;1.00;;
3541;SDS011;1785;47.388;8.538;2022-09-09T13:14:38;2.77;;;1.10;;
3541;SDS011;1785;47.388;8.538;2022-09-09T13:17:05;1.90;;;1.30;;
3541;SDS011;1785;47.388;8.538;2022-09-09T13:19:43;1.10;;;0.80;;
3541;SDS011;1785;47.388;8.538;2022-09-09T13:22:11;1.00;;;0.90;;
3541;SDS011;1785;47.388;8.538;2022-09-09T13:24:39;1.00;;;0.80;;
3541;SDS011;1785;47.388;8.538;2022-09-09T13:27:20;4.03;;;1.20;;
3541;SDS011;1785;47.388;8.538;2022-09-09T13:29:55;2.77;;;0.97;;
3541;SDS011;1785;47.388;8.538;2022-09-09T13:32:22;4.00;;;1.20;;
3541;SDS011;1785;47.388;8.538;2022-09-09T13:34:52;2.10;;;0.90;;
3541;SDS011;1785;47.388;8.538;2022-09-09T13:37:20;2.63;;;0.80;;
3541;SDS011;1785;47.388;8.538;2022-09-09T13:39:51;1.23;;;0.90;;
3541;SDS011;1785;47.388;8.538;2022-09-09T13:42:21;1.50;;;0.93;;
3541;SDS011;1785;47.388;8.538;2022-09-09T13:44:51;1.33;;;1.23;;
3541;SDS011;1785;47.388;8.538;2022-09-09T13:47:18;4.10;;;0.90;;
3541;SDS011;1785;47.388;8.538;2022-09-09T13:49:45;2.07;;;0.70;;
3541;SDS011;1785;47.388;8.538;2022-09-09T13:52:12;0.90;;;0.80;;
3541;SDS011;1785;47.388;8.538;2022-09-09T13:54:42;1.83;;;1.20;;
3541;SDS011;1785;47.388;8.538;2022-09-09T13:57:14;2.87;;;1.07;;
3541;SDS011;1785;47.388;8.538;2022-09-09T13:59:43;1.00;;;0.90;;
3541;SDS011;1785;47.388;8.538;2022-09-09T14:02:10;1.57;;;0.80;;
3541;SDS011;1785;47.388;8.538;2022-09-09T14:04:36;2.07;;;0.80;;
3541;SDS011;1785;47.388;8.538;2022-09-09T14:07:03;1.73;;;0.83;;
3541;SDS011;1785;47.388;8.538;2022-09-09T14:09:29;0.70;;;0.60;;
3541;SDS011;1785;47.388;8.538;2022-09-09T14:11:55;4.33;;;0.90;;
3541;SDS011;1785;47.388;8.538;2022-09-09T14:14:23;4.70;;;0.77;;
3541;SDS011;1785;47.388;8.538;2022-09-09T14:16:50;5.57;;;0.80;;
3541;SDS011;1785;47.388;8.538;2022-09-09T14:19:17;1.77;;;0.87;;
3541;SDS011;1785;47.388;8.538;2022-09-09T14:21:43;0.70;;;0.70;;
3541;SDS011;1785;47.388;8.538;2022-09-09T14:24:09;1.73;;;1.03;;
3541;SDS011;1785;47.388;8.538;2022-09-09T14:26:37;4.03;;;1.00;;
3541;SDS011;1785;47.388;8.538;2022-09-09T14:29:04;2.33;;;0.77;;
3541;SDS011;1785;47.388;8.538;2022-09-09T14:31:31;3.00;;;0.90;;
3541;SDS011;1785;47.388;8.538;2022-09-09T14:33:57;1.30;;;1.07;;
3541;SDS011;1785;47.388;8.538;2022-09-09T14:36:24;5.33;;;1.30;;
3541;SDS011;1785;47.388;8.538;2022-09-09T14:38:50;2.87;;;1.00;;
3541;SDS011;1785;47.388;8.538;2022-09-09T14:41:17;3.37;;;1.00;;
3541;SDS011;1785;47.388;8.538;2022-09-09T14:43:47;3.03;;;1.10;;
3541;SDS011;1785;47.388;8.538;2022-09-09T14:46:15;3.30;;;1.20;;
3541;SDS011;1785;47.388;8.538;2022-09-09T14:48:43;3.10;;;0.83;;
3541;SDS011;1785;47.388;8.538;2022-09-09T14:51:10;2.20;;;0.97;;
3541;SDS011;1785;47.388;8.538;2022-09-09T14:53:38;5.57;;;1.57;;
3541;SDS011;1785;47.388;8.538;2022-09-09T14:56:06;3.23;;;0.90;;
3541;SDS011;1785;47.388;8.538;2022-09-09T14:58:33;3.27;;;1.07;;
3541;SDS011;1785;47.388;8.538;2022-09-09T15:01:03;2.93;;;0.80;;
3541;SDS011;1785;47.388;8.538;2022-09-09T15:03:30;1.80;;;0.90;;
3541;SDS011;1785;47.388;8.538;2022-09-09T15:05:58;2.00;;;0.87;;
3541;SDS011;1785;47.388;8.538;2022-09-09T15:08:30;1.53;;;0.80;;
3541;SDS011;1785;47.388;8.538;2022-09-09T15:10:58;1.10;;;0.90;;
3541;SDS011;1785;47.388;8.538;2022-09-09T15:13:26;2.20;;;0.80;;
3541;SDS011;1785;47.388;8.538;2022-09-09T15:15:52;3.03;;;1.27;;
3541;SDS011;1785;47.388;8.538;2022-09-09T15:18:19;1.77;;;0.80;;
3541;SDS011;1785;47.388;8.538;2022-09-09T15:20:45;2.90;;;1.20;;
3541;SDS011;1785;47.388;8.538;2022-09-09T15:23:13;3.03;;;1.00;;
3541;SDS011;1785;47.388;8.538;2022-09-09T15:25:49;4.33;;;1.30;;
3541;SDS011;1785;47.388;8.538;2022-09-09T15:28:17;4.83;;;1.10;;
3541;SDS011;1785;47.388;8.538;2022-09-09T15:30:43;2.63;;;1.20;;
3541;SDS011;1785;47.388;8.538;2022-09-09T15:33:12;2.93;;;1.43;;
3541;SDS011;1785;47.388;8.538;2022-09-09T15:35:38;2.33;;;0.90;;
3541;SDS011;1785;47.388;8.538;2022-09-09T15:38:04;2.70;;;0.80;;
3541;SDS011;1785;47.388;8.538;2022-09-09T15:40:31;2.93;;;0.90;;
3541;SDS011;1785;47.388;8.538;2022-09-09T15:42:58;2.40;;;1.17;;
3541;SDS011;1785;47.388;8.538;2022-09-09T15:45:24;3.90;;;1.00;;